Villa Karen, Puerto Rico
Current Conditions -  °F | °C
As of 8:50 PM on Sunday 23 Nov 2014 (Local Time) from TJBQ Reporting Station
Clear Clear  
Wind Chill: 77°   Ceiling: Unl
Heat Index: 79°   Visibility: 10mi
Dew Point: 70°   Wind: 12mph
Humidity: 78%   Direction: 110°ESE
Pressure: 30.03"   Gusts: NA
Location:  18.4951°N, 67.0273°W
Report Text: TJBQ 240050Z 11010KT 10SM SKC 25/21 A3003 RMK RWY 08 ATIS S
Loading
Personal Weather Stations






























Interactive Weather Map New forecast layout! Learn more

10-Day Weather Forecast

Advertisements
Track Severe Weather on mobile